sensor_id;sensor_type;location;lat;lon;timestamp;temperature;humidity
17370;DHT22;8802;52.402;4.920;2023-03-01T00:00:52;6.80;95.30
17370;DHT22;8802;52.402;4.920;2023-03-01T00:03:19;6.70;95.40
17370;DHT22;8802;52.402;4.920;2023-03-01T00:05:46;6.70;95.50
17370;DHT22;8802;52.402;4.920;2023-03-01T00:08:14;6.70;95.50
17370;DHT22;8802;52.402;4.920;2023-03-01T00:10:41;6.70;95.50
17370;DHT22;8802;52.402;4.920;2023-03-01T00:13:08;6.70;95.50
17370;DHT22;8802;52.402;4.920;2023-03-01T00:15:38;6.70;95.50
17370;DHT22;8802;52.402;4.920;2023-03-01T00:18:05;6.70;95.50
17370;DHT22;8802;52.402;4.920;2023-03-01T00:20:32;6.70;95.60
17370;DHT22;8802;52.402;4.920;2023-03-01T00:22:59;6.70;95.60
17370;DHT22;8802;52.402;4.920;2023-03-01T00:25:27;6.70;95.70
17370;DHT22;8802;52.402;4.920;2023-03-01T00:27:54;6.80;95.70
17370;DHT22;8802;52.402;4.920;2023-03-01T00:30:21;6.70;95.70
17370;DHT22;8802;52.402;4.920;2023-03-01T00:32:48;6.70;95.70
17370;DHT22;8802;52.402;4.920;2023-03-01T00:35:15;6.70;95.60
17370;DHT22;8802;52.402;4.920;2023-03-01T00:37:42;6.60;95.60
17370;DHT22;8802;52.402;4.920;2023-03-01T00:40:10;6.70;95.70
17370;DHT22;8802;52.402;4.920;2023-03-01T00:42:38;6.70;95.70
17370;DHT22;8802;52.402;4.920;2023-03-01T00:45:06;6.70;95.60
17370;DHT22;8802;52.402;4.920;2023-03-01T00:47:34;6.70;95.60
17370;DHT22;8802;52.402;4.920;2023-03-01T00:50:01;6.70;95.60
17370;DHT22;8802;52.402;4.920;2023-03-01T00:52:27;6.70;95.50
17370;DHT22;8802;52.402;4.920;2023-03-01T00:54:54;6.70;95.60
17370;DHT22;8802;52.402;4.920;2023-03-01T00:57:23;6.60;95.60
17370;DHT22;8802;52.402;4.920;2023-03-01T00:59:51;6.60;95.60
17370;DHT22;8802;52.402;4.920;2023-03-01T01:02:18;6.60;95.30
17370;DHT22;8802;52.402;4.920;2023-03-01T01:04:45;6.60;95.40
17370;DHT22;8802;52.402;4.920;2023-03-01T01:07:12;6.60;95.30
17370;DHT22;8802;52.402;4.920;2023-03-01T01:09:40;6.60;95.60
17370;DHT22;8802;52.402;4.920;2023-03-01T01:12:07;6.60;95.20
17370;DHT22;8802;52.402;4.920;2023-03-01T01:14:35;6.60;95.20
17370;DHT22;8802;52.402;4.920;2023-03-01T01:17:03;6.60;95.20
17370;DHT22;8802;52.402;4.920;2023-03-01T01:19:31;6.50;95.40
17370;DHT22;8802;52.402;4.920;2023-03-01T01:21:57;6.60;95.40
17370;DHT22;8802;52.402;4.920;2023-03-01T01:24:24;6.50;95.30
17370;DHT22;8802;52.402;4.920;2023-03-01T01:26:51;6.50;95.40
17370;DHT22;8802;52.402;4.920;2023-03-01T01:29:18;6.50;95.50
17370;DHT22;8802;52.402;4.920;2023-03-01T01:31:45;6.50;95.50
17370;DHT22;8802;52.402;4.920;2023-03-01T01:34:16;6.50;95.40
17370;DHT22;8802;52.402;4.920;2023-03-01T01:36:43;6.40;95.20
17370;DHT22;8802;52.402;4.920;2023-03-01T01:39:10;6.50;95.30
17370;DHT22;8802;52.402;4.920;2023-03-01T01:41:41;6.40;95.20
17370;DHT22;8802;52.402;4.920;2023-03-01T01:44:17;6.40;95.20
17370;DHT22;8802;52.402;4.920;2023-03-01T01:46:47;6.40;95.30
17370;DHT22;8802;52.402;4.920;2023-03-01T01:49:35;6.40;95.40
17370;DHT22;8802;52.402;4.920;2023-03-01T01:52:09;6.40;95.20
17370;DHT22;8802;52.402;4.920;2023-03-01T01:54:42;6.40;95.30
17370;DHT22;8802;52.402;4.920;2023-03-01T01:57:14;6.40;95.40
17370;DHT22;8802;52.402;4.920;2023-03-01T01:59:45;6.40;95.50
17370;DHT22;8802;52.402;4.920;2023-03-01T02:02:14;6.30;95.40
17370;DHT22;8802;52.402;4.920;2023-03-01T02:04:42;6.30;95.40
17370;DHT22;8802;52.402;4.920;2023-03-01T02:07:14;6.30;95.40
17370;DHT22;8802;52.402;4.920;2023-03-01T02:09:45;6.30;95.40
17370;DHT22;8802;52.402;4.920;2023-03-01T02:12:14;6.30;95.40
17370;DHT22;8802;52.402;4.920;2023-03-01T02:14:41;6.30;95.40
17370;DHT22;8802;52.402;4.920;2023-03-01T02:17:08;6.30;95.40
17370;DHT22;8802;52.402;4.920;2023-03-01T02:19:46;6.30;95.40
17370;DHT22;8802;52.402;4.920;2023-03-01T02:22:20;6.20;95.40
17370;DHT22;8802;52.402;4.920;2023-03-01T02:24:57;6.40;95.40
17370;DHT22;8802;52.402;4.920;2023-03-01T02:27:33;6.20;95.40
17370;DHT22;8802;52.402;4.920;2023-03-01T02:30:04;6.20;95.50
17370;DHT22;8802;52.402;4.920;2023-03-01T02:32:32;6.20;95.50
17370;DHT22;8802;52.402;4.920;2023-03-01T02:34:58;6.20;95.80
17370;DHT22;8802;52.402;4.920;2023-03-01T02:37:26;6.20;95.50
17370;DHT22;8802;52.402;4.920;2023-03-01T02:39:57;6.20;95.40
17370;DHT22;8802;52.402;4.920;2023-03-01T02:42:30;6.10;95.30
17370;DHT22;8802;52.402;4.920;2023-03-01T02:44:57;6.10;95.30
17370;DHT22;8802;52.402;4.920;2023-03-01T02:47:25;6.10;95.20
17370;DHT22;8802;52.402;4.920;2023-03-01T02:49:52;6.10;95.40
17370;DHT22;8802;52.402;4.920;2023-03-01T02:52:41;6.10;95.30
17370;DHT22;8802;52.402;4.920;2023-03-01T02:55:11;6.10;95.40
17370;DHT22;8802;52.402;4.920;2023-03-01T02:57:40;6.10;95.60
17370;DHT22;8802;52.402;4.920;2023-03-01T03:00:11;6.10;95.50
17370;DHT22;8802;52.402;4.920;2023-03-01T03:02:46;6.10;95.40
17370;DHT22;8802;52.402;4.920;2023-03-01T03:05:16;6.00;95.40
17370;DHT22;8802;52.402;4.920;2023-03-01T03:07:44;6.00;95.40
17370;DHT22;8802;52.402;4.920;2023-03-01T03:10:13;6.00;95.50
17370;DHT22;8802;52.402;4.920;2023-03-01T03:12:41;6.00;95.60
17370;DHT22;8802;52.402;4.920;2023-03-01T03:15:09;6.00;95.50
17370;DHT22;8802;52.402;4.920;2023-03-01T03:17:39;6.00;95.40
17370;DHT22;8802;52.402;4.920;2023-03-01T03:20:10;6.00;95.50
17370;DHT22;8802;52.402;4.920;2023-03-01T03:22:38;6.00;95.40
17370;DHT22;8802;52.402;4.920;2023-03-01T03:25:06;6.00;95.30
17370;DHT22;8802;52.402;4.920;2023-03-01T03:27:36;5.90;95.50
17370;DHT22;8802;52.402;4.920;2023-03-01T03:30:04;5.90;95.30
17370;DHT22;8802;52.402;4.920;2023-03-01T03:32:34;5.90;95.30
17370;DHT22;8802;52.402;4.920;2023-03-01T03:35:01;5.90;95.30
17370;DHT22;8802;52.402;4.920;2023-03-01T03:37:36;5.90;95.30
17370;DHT22;8802;52.402;4.920;2023-03-01T03:40:20;5.90;95.40
17370;DHT22;8802;52.402;4.920;2023-03-01T03:42:47;5.90;95.40
17370;DHT22;8802;52.402;4.920;2023-03-01T03:45:14;5.90;95.50
17370;DHT22;8802;52.402;4.920;2023-03-01T03:47:41;5.90;95.50
17370;DHT22;8802;52.402;4.920;2023-03-01T03:50:10;5.90;95.40
17370;DHT22;8802;52.402;4.920;2023-03-01T03:52:38;5.90;95.30
17370;DHT22;8802;52.402;4.920;2023-03-01T03:55:06;5.80;95.30
17370;DHT22;8802;52.402;4.920;2023-03-01T03:57:36;5.80;95.40
17370;DHT22;8802;52.402;4.920;2023-03-01T04:00:04;5.80;95.40
17370;DHT22;8802;52.402;4.920;2023-03-01T04:02:38;5.80;95.30
17370;DHT22;8802;52.402;4.920;2023-03-01T04:05:05;5.80;95.30
17370;DHT22;8802;52.402;4.920;2023-03-01T04:07:33;5.80;95.30
17370;DHT22;8802;52.402;4.920;2023-03-01T04:10:01;5.80;95.00
17370;DHT22;8802;52.402;4.920;2023-03-01T04:12:28;5.80;95.40
17370;DHT22;8802;52.402;4.920;2023-03-01T04:14:55;5.80;95.40
17370;DHT22;8802;52.402;4.920;2023-03-01T04:17:23;5.80;95.40
17370;DHT22;8802;52.402;4.920;2023-03-01T04:19:50;5.80;95.40
17370;DHT22;8802;52.402;4.920;2023-03-01T04:22:17;5.70;95.30
17370;DHT22;8802;52.402;4.920;2023-03-01T04:24:44;5.70;95.20
17370;DHT22;8802;52.402;4.920;2023-03-01T04:27:12;5.70;95.30
17370;DHT22;8802;52.402;4.920;2023-03-01T04:29:39;5.70;95.30
17370;DHT22;8802;52.402;4.920;2023-03-01T04:32:06;5.70;95.40
17370;DHT22;8802;52.402;4.920;2023-03-01T04:34:33;5.70;95.30
17370;DHT22;8802;52.402;4.920;2023-03-01T04:37:00;5.70;95.20
17370;DHT22;8802;52.402;4.920;2023-03-01T04:39:27;5.70;95.10
17370;DHT22;8802;52.402;4.920;2023-03-01T04:41:54;5.70;95.00
17370;DHT22;8802;52.402;4.920;2023-03-01T04:44:22;5.70;95.10
17370;DHT22;8802;52.402;4.920;2023-03-01T04:46:49;5.60;95.10
17370;DHT22;8802;52.402;4.920;2023-03-01T04:49:16;5.70;95.20
17370;DHT22;8802;52.402;4.920;2023-03-01T04:51:43;5.60;95.20
17370;DHT22;8802;52.402;4.920;2023-03-01T04:54:09;5.60;95.20
17370;DHT22;8802;52.402;4.920;2023-03-01T04:56:36;5.60;95.20
17370;DHT22;8802;52.402;4.920;2023-03-01T04:59:03;5.60;95.00
17370;DHT22;8802;52.402;4.920;2023-03-01T05:01:32;5.60;95.10
17370;DHT22;8802;52.402;4.920;2023-03-01T05:04:01;5.60;95.20
17370;DHT22;8802;52.402;4.920;2023-03-01T05:06:28;5.60;95.20
17370;DHT22;8802;52.402;4.920;2023-03-01T05:08:55;5.60;95.00
17370;DHT22;8802;52.402;4.920;2023-03-01T05:11:22;5.60;95.10
17370;DHT22;8802;52.402;4.920;2023-03-01T05:13:49;5.60;95.20
17370;DHT22;8802;52.402;4.920;2023-03-01T05:16:20;5.60;95.30
17370;DHT22;8802;52.402;4.920;2023-03-01T05:18:48;5.60;95.30
17370;DHT22;8802;52.402;4.920;2023-03-01T05:21:17;5.60;95.20
17370;DHT22;8802;52.402;4.920;2023-03-01T05:23:44;5.60;95.10
17370;DHT22;8802;52.402;4.920;2023-03-01T05:26:13;5.50;95.00
17370;DHT22;8802;52.402;4.920;2023-03-01T05:28:40;5.50;95.00
17370;DHT22;8802;52.402;4.920;2023-03-01T05:31:07;5.60;95.00
17370;DHT22;8802;52.402;4.920;2023-03-01T05:33:35;5.50;95.00
17370;DHT22;8802;52.402;4.920;2023-03-01T05:36:05;5.50;95.20
17370;DHT22;8802;52.402;4.920;2023-03-01T05:38:33;5.50;95.20
17370;DHT22;8802;52.402;4.920;2023-03-01T05:41:00;5.50;95.20
17370;DHT22;8802;52.402;4.920;2023-03-01T05:43:30;5.50;95.20
17370;DHT22;8802;52.402;4.920;2023-03-01T05:45:57;5.50;95.20
17370;DHT22;8802;52.402;4.920;2023-03-01T05:48:25;5.50;95.40
17370;DHT22;8802;52.402;4.920;2023-03-01T05:50:52;5.50;95.40
17370;DHT22;8802;52.402;4.920;2023-03-01T05:53:20;5.60;95.50
17370;DHT22;8802;52.402;4.920;2023-03-01T05:55:47;5.50;95.60
17370;DHT22;8802;52.402;4.920;2023-03-01T05:58:16;5.50;95.70
17370;DHT22;8802;52.402;4.920;2023-03-01T06:00:45;5.50;95.80
17370;DHT22;8802;52.402;4.920;2023-03-01T06:03:14;5.50;95.80
17370;DHT22;8802;52.402;4.920;2023-03-01T06:05:42;5.50;95.80
17370;DHT22;8802;52.402;4.920;2023-03-01T06:08:10;5.50;95.90
17370;DHT22;8802;52.402;4.920;2023-03-01T06:10:38;5.50;96.00
17370;DHT22;8802;52.402;4.920;2023-03-01T06:13:06;5.50;96.10
17370;DHT22;8802;52.402;4.920;2023-03-01T06:15:32;5.50;96.20
17370;DHT22;8802;52.402;4.920;2023-03-01T06:17:59;5.50;96.30
17370;DHT22;8802;52.402;4.920;2023-03-01T06:20:28;5.50;96.30
17370;DHT22;8802;52.402;4.920;2023-03-01T06:22:55;5.50;96.40
17370;DHT22;8802;52.402;4.920;2023-03-01T06:25:24;5.50;96.40
17370;DHT22;8802;52.402;4.920;2023-03-01T06:27:52;5.50;96.50
17370;DHT22;8802;52.402;4.920;2023-03-01T06:30:21;5.50;96.40
17370;DHT22;8802;52.402;4.920;2023-03-01T06:32:48;5.50;96.40
17370;DHT22;8802;52.402;4.920;2023-03-01T06:35:16;5.50;96.40
17370;DHT22;8802;52.402;4.920;2023-03-01T06:37:44;5.50;96.50
17370;DHT22;8802;52.402;4.920;2023-03-01T06:40:11;5.50;96.60
17370;DHT22;8802;52.402;4.920;2023-03-01T06:42:42;5.50;96.60
17370;DHT22;8802;52.402;4.920;2023-03-01T06:45:11;5.50;96.70
17370;DHT22;8802;52.402;4.920;2023-03-01T06:47:38;5.50;96.80
17370;DHT22;8802;52.402;4.920;2023-03-01T06:50:05;5.50;96.90
17370;DHT22;8802;52.402;4.920;2023-03-01T06:52:32;5.60;96.90
17370;DHT22;8802;52.402;4.920;2023-03-01T06:54:59;5.60;97.00
17370;DHT22;8802;52.402;4.920;2023-03-01T06:57:26;5.60;97.10
17370;DHT22;8802;52.402;4.920;2023-03-01T06:59:53;5.50;97.10
17370;DHT22;8802;52.402;4.920;2023-03-01T07:02:22;5.60;97.10
17370;DHT22;8802;52.402;4.920;2023-03-01T07:04:49;5.60;97.20
17370;DHT22;8802;52.402;4.920;2023-03-01T07:07:16;5.60;97.60
17370;DHT22;8802;52.402;4.920;2023-03-01T07:09:43;5.60;97.30
17370;DHT22;8802;52.402;4.920;2023-03-01T07:12:10;5.60;97.40
17370;DHT22;8802;52.402;4.920;2023-03-01T07:14:37;5.60;97.30
17370;DHT22;8802;52.402;4.920;2023-03-01T07:17:04;5.60;97.30
17370;DHT22;8802;52.402;4.920;2023-03-01T07:19:32;5.70;97.40
17370;DHT22;8802;52.402;4.920;2023-03-01T07:21:59;5.70;97.30
17370;DHT22;8802;52.402;4.920;2023-03-01T07:24:26;5.70;97.30
17370;DHT22;8802;52.402;4.920;2023-03-01T07:26:53;5.70;97.30
17370;DHT22;8802;52.402;4.920;2023-03-01T07:29:20;5.70;97.30
17370;DHT22;8802;52.402;4.920;2023-03-01T07:31:47;5.70;97.30
17370;DHT22;8802;52.402;4.920;2023-03-01T07:34:14;5.70;97.30
17370;DHT22;8802;52.402;4.920;2023-03-01T07:36:42;5.80;97.30
17370;DHT22;8802;52.402;4.920;2023-03-01T07:39:11;5.80;97.30
17370;DHT22;8802;52.402;4.920;2023-03-01T07:41:38;5.80;97.30
17370;DHT22;8802;52.402;4.920;2023-03-01T07:44:05;5.80;97.30
17370;DHT22;8802;52.402;4.920;2023-03-01T07:46:32;5.90;97.30
17370;DHT22;8802;52.402;4.920;2023-03-01T07:48:59;5.90;97.40
17370;DHT22;8802;52.402;4.920;2023-03-01T07:51:26;5.90;97.40
17370;DHT22;8802;52.402;4.920;2023-03-01T07:53:54;5.90;97.40
17370;DHT22;8802;52.402;4.920;2023-03-01T07:56:21;5.90;97.50
17370;DHT22;8802;52.402;4.920;2023-03-01T07:58:48;6.00;97.50
17370;DHT22;8802;52.402;4.920;2023-03-01T08:01:16;6.00;97.40
17370;DHT22;8802;52.402;4.920;2023-03-01T08:03:43;6.00;97.50
17370;DHT22;8802;52.402;4.920;2023-03-01T08:06:11;6.00;97.60
17370;DHT22;8802;52.402;4.920;2023-03-01T08:08:38;6.00;97.60
17370;DHT22;8802;52.402;4.920;2023-03-01T08:11:09;6.00;97.70
17370;DHT22;8802;52.402;4.920;2023-03-01T08:13:36;6.00;97.60
17370;DHT22;8802;52.402;4.920;2023-03-01T08:16:04;6.00;97.60
17370;DHT22;8802;52.402;4.920;2023-03-01T08:18:32;6.00;97.60
17370;DHT22;8802;52.402;4.920;2023-03-01T08:21:02;6.10;97.60
17370;DHT22;8802;52.402;4.920;2023-03-01T08:23:29;6.10;97.50
17370;DHT22;8802;52.402;4.920;2023-03-01T08:26:04;6.10;97.30
17370;DHT22;8802;52.402;4.920;2023-03-01T08:28:33;6.10;97.30
17370;DHT22;8802;52.402;4.920;2023-03-01T08:31:00;6.00;97.30
17370;DHT22;8802;52.402;4.920;2023-03-01T08:33:26;6.00;97.30
17370;DHT22;8802;52.402;4.920;2023-03-01T08:36:02;6.00;97.40
17370;DHT22;8802;52.402;4.920;2023-03-01T08:38:29;6.00;97.80
17370;DHT22;8802;52.402;4.920;2023-03-01T08:40:59;6.00;97.40
17370;DHT22;8802;52.402;4.920;2023-03-01T08:43:26;6.00;97.40
17370;DHT22;8802;52.402;4.920;2023-03-01T08:45:54;6.00;97.40
17370;DHT22;8802;52.402;4.920;2023-03-01T08:48:21;6.00;97.40
17370;DHT22;8802;52.402;4.920;2023-03-01T08:50:48;6.10;97.50
17370;DHT22;8802;52.402;4.920;2023-03-01T08:53:14;6.00;97.50
17370;DHT22;8802;52.402;4.920;2023-03-01T08:55:41;6.00;97.50
17370;DHT22;8802;52.402;4.920;2023-03-01T08:58:08;6.00;97.50
17370;DHT22;8802;52.402;4.920;2023-03-01T09:00:35;6.10;97.60
17370;DHT22;8802;52.402;4.920;2023-03-01T09:03:03;6.10;97.70
17370;DHT22;8802;52.402;4.920;2023-03-01T09:05:31;6.10;97.70
17370;DHT22;8802;52.402;4.920;2023-03-01T09:07:59;6.10;97.80
17370;DHT22;8802;52.402;4.920;2023-03-01T09:10:25;6.10;97.90
17370;DHT22;8802;52.402;4.920;2023-03-01T09:12:52;6.20;97.90
17370;DHT22;8802;52.402;4.920;2023-03-01T09:15:19;6.20;97.90
17370;DHT22;8802;52.402;4.920;2023-03-01T09:17:46;6.20;97.90
17370;DHT22;8802;52.402;4.920;2023-03-01T09:20:14;6.30;97.90
17370;DHT22;8802;52.402;4.920;2023-03-01T09:22:41;6.30;97.70
17370;DHT22;8802;52.402;4.920;2023-03-01T09:25:09;6.30;97.80
17370;DHT22;8802;52.402;4.920;2023-03-01T09:27:36;6.40;97.80
17370;DHT22;8802;52.402;4.920;2023-03-01T09:30:03;6.40;97.80
17370;DHT22;8802;52.402;4.920;2023-03-01T09:32:30;6.40;97.90
17370;DHT22;8802;52.402;4.920;2023-03-01T09:34:57;6.40;98.00
17370;DHT22;8802;52.402;4.920;2023-03-01T09:37:31;6.50;97.90
17370;DHT22;8802;52.402;4.920;2023-03-01T09:39:58;6.50;98.00
17370;DHT22;8802;52.402;4.920;2023-03-01T09:42:26;6.50;97.90
17370;DHT22;8802;52.402;4.920;2023-03-01T09:44:57;6.60;97.90
17370;DHT22;8802;52.402;4.920;2023-03-01T09:47:26;6.60;97.90
17370;DHT22;8802;52.402;4.920;2023-03-01T09:50:00;6.60;97.90
17370;DHT22;8802;52.402;4.920;2023-03-01T09:52:36;6.60;98.00
17370;DHT22;8802;52.402;4.920;2023-03-01T09:55:08;6.70;97.90
17370;DHT22;8802;52.402;4.920;2023-03-01T09:57:43;6.70;97.80
17370;DHT22;8802;52.402;4.920;2023-03-01T10:00:23;6.80;97.90
17370;DHT22;8802;52.402;4.920;2023-03-01T10:02:59;6.80;97.80
17370;DHT22;8802;52.402;4.920;2023-03-01T10:05:34;6.80;97.70
17370;DHT22;8802;52.402;4.920;2023-03-01T10:08:29;6.90;97.70
17370;DHT22;8802;52.402;4.920;2023-03-01T10:10:58;6.90;97.90
17370;DHT22;8802;52.402;4.920;2023-03-01T10:13:31;7.00;97.90
17370;DHT22;8802;52.402;4.920;2023-03-01T10:16:03;7.00;98.00
17370;DHT22;8802;52.402;4.920;2023-03-01T10:18:33;7.00;98.00
17370;DHT22;8802;52.402;4.920;2023-03-01T10:21:07;7.10;98.00
17370;DHT22;8802;52.402;4.920;2023-03-01T10:23:39;7.20;98.20
17370;DHT22;8802;52.402;4.920;2023-03-01T10:26:32;7.30;98.20
17370;DHT22;8802;52.402;4.920;2023-03-01T10:29:06;7.30;98.10
17370;DHT22;8802;52.402;4.920;2023-03-01T10:31:39;7.40;98.00
17370;DHT22;8802;52.402;4.920;2023-03-01T10:34:10;7.50;97.90
17370;DHT22;8802;52.402;4.920;2023-03-01T10:36:39;7.60;97.80
17370;DHT22;8802;52.402;4.920;2023-03-01T10:39:13;7.70;97.80
17370;DHT22;8802;52.402;4.920;2023-03-01T10:41:53;7.80;98.00
17370;DHT22;8802;52.402;4.920;2023-03-01T10:44:41;7.90;97.80
17370;DHT22;8802;52.402;4.920;2023-03-01T10:47:14;8.10;98.00
17370;DHT22;8802;52.402;4.920;2023-03-01T10:49:53;8.20;98.00
17370;DHT22;8802;52.402;4.920;2023-03-01T10:52:21;8.40;98.00
17370;DHT22;8802;52.402;4.920;2023-03-01T10:54:56;8.50;97.90
17370;DHT22;8802;52.402;4.920;2023-03-01T10:57:38;8.60;97.50
17370;DHT22;8802;52.402;4.920;2023-03-01T11:00:21;8.80;97.20
17370;DHT22;8802;52.402;4.920;2023-03-01T11:02:51;9.00;97.00
17370;DHT22;8802;52.402;4.920;2023-03-01T11:05:28;9.10;96.00
17370;DHT22;8802;52.402;4.920;2023-03-01T11:07:57;9.30;95.20
17370;DHT22;8802;52.402;4.920;2023-03-01T11:10:27;9.40;94.70
17370;DHT22;8802;52.402;4.920;2023-03-01T11:13:06;9.60;94.50
17370;DHT22;8802;52.402;4.920;2023-03-01T11:15:33;9.70;94.10
17370;DHT22;8802;52.402;4.920;2023-03-01T11:18:00;9.80;93.60
17370;DHT22;8802;52.402;4.920;2023-03-01T11:20:32;10.00;92.80
17370;DHT22;8802;52.402;4.920;2023-03-01T11:23:03;10.10;92.50
17370;DHT22;8802;52.402;4.920;2023-03-01T11:25:35;10.20;92.50
17370;DHT22;8802;52.402;4.920;2023-03-01T11:28:04;10.30;92.20
17370;DHT22;8802;52.402;4.920;2023-03-01T11:30:35;10.40;91.80
17370;DHT22;8802;52.402;4.920;2023-03-01T11:33:12;10.50;91.90
17370;DHT22;8802;52.402;4.920;2023-03-01T11:35:44;10.60;91.50
17370;DHT22;8802;52.402;4.920;2023-03-01T11:38:19;10.70;91.10
17370;DHT22;8802;52.402;4.920;2023-03-01T11:40:52;10.80;90.60
17370;DHT22;8802;52.402;4.920;2023-03-01T11:43:26;10.90;90.70
17370;DHT22;8802;52.402;4.920;2023-03-01T11:49:07;11.10;90.20
17370;DHT22;8802;52.402;4.920;2023-03-01T11:51:43;11.20;90.50
17370;DHT22;8802;52.402;4.920;2023-03-01T11:54:28;11.20;90.20
17370;DHT22;8802;52.402;4.920;2023-03-01T11:57:01;11.40;89.80
17370;DHT22;8802;52.402;4.920;2023-03-01T11:59:48;11.40;90.00
17370;DHT22;8802;52.402;4.920;2023-03-01T12:08:23;11.60;87.50
17370;DHT22;8802;52.402;4.920;2023-03-01T12:10:57;11.60;87.70
17370;DHT22;8802;52.402;4.920;2023-03-01T12:13:56;11.70;87.40
17370;DHT22;8802;52.402;4.920;2023-03-01T12:16:36;11.70;86.90
17370;DHT22;8802;52.402;4.920;2023-03-01T12:19:15;11.70;86.70
17370;DHT22;8802;52.402;4.920;2023-03-01T12:22:01;11.70;86.10
17370;DHT22;8802;52.402;4.920;2023-03-01T12:27:50;11.70;86.40
17370;DHT22;8802;52.402;4.920;2023-03-01T12:30:29;11.70;86.10
17370;DHT22;8802;52.402;4.920;2023-03-01T12:33:08;11.70;85.80
17370;DHT22;8802;52.402;4.920;2023-03-01T12:35:54;11.60;85.20
17370;DHT22;8802;52.402;4.920;2023-03-01T12:38:32;11.60;84.80
17370;DHT22;8802;52.402;4.920;2023-03-01T12:41:16;11.50;84.90
17370;DHT22;8802;52.402;4.920;2023-03-01T12:43:54;11.50;83.80
17370;DHT22;8802;52.402;4.920;2023-03-01T12:46:39;11.40;83.90
17370;DHT22;8802;52.402;4.920;2023-03-01T12:49:12;11.40;83.90
17370;DHT22;8802;52.402;4.920;2023-03-01T12:51:40;11.30;83.50
17370;DHT22;8802;52.402;4.920;2023-03-01T12:54:15;11.30;84.70
17370;DHT22;8802;52.402;4.920;2023-03-01T12:56:43;11.30;83.80
17370;DHT22;8802;52.402;4.920;2023-03-01T12:59:21;11.30;84.20
17370;DHT22;8802;52.402;4.920;2023-03-01T13:01:56;11.20;84.20
17370;DHT22;8802;52.402;4.920;2023-03-01T13:04:37;11.20;84.10
17370;DHT22;8802;52.402;4.920;2023-03-01T13:07:21;11.10;84.30
17370;DHT22;8802;52.402;4.920;2023-03-01T13:09:56;11.10;84.60
17370;DHT22;8802;52.402;4.920;2023-03-01T13:12:46;11.00;85.20
17370;DHT22;8802;52.402;4.920;2023-03-01T13:15:27;11.10;85.40
17370;DHT22;8802;52.402;4.920;2023-03-01T13:17:56;11.00;84.90
17370;DHT22;8802;52.402;4.920;2023-03-01T13:20:27;11.00;85.20
17370;DHT22;8802;52.402;4.920;2023-03-01T13:23:07;11.00;85.10
17370;DHT22;8802;52.402;4.920;2023-03-01T13:29:11;10.90;84.70
17370;DHT22;8802;52.402;4.920;2023-03-01T13:32:00;10.90;85.20
17370;DHT22;8802;52.402;4.920;2023-03-01T13:34:54;10.90;85.90
17370;DHT22;8802;52.402;4.920;2023-03-01T13:37:23;10.80;85.00
17370;DHT22;8802;52.402;4.920;2023-03-01T13:39:55;10.80;85.40
17370;DHT22;8802;52.402;4.920;2023-03-01T13:42:45;10.80;84.50
17370;DHT22;8802;52.402;4.920;2023-03-01T13:45:21;10.70;84.60
17370;DHT22;8802;52.402;4.920;2023-03-01T13:47:55;10.70;85.70
17370;DHT22;8802;52.402;4.920;2023-03-01T13:50:28;10.70;85.60
17370;DHT22;8802;52.402;4.920;2023-03-01T13:52:58;10.70;85.10
17370;DHT22;8802;52.402;4.920;2023-03-01T13:55:31;10.60;85.90
17370;DHT22;8802;52.402;4.920;2023-03-01T13:58:04;10.70;86.40
17370;DHT22;8802;52.402;4.920;2023-03-01T14:00:34;10.60;86.70
17370;DHT22;8802;52.402;4.920;2023-03-01T14:03:09;10.60;86.70
17370;DHT22;8802;52.402;4.920;2023-03-01T14:05:39;10.50;87.10
17370;DHT22;8802;52.402;4.920;2023-03-01T14:08:19;10.60;87.70
17370;DHT22;8802;52.402;4.920;2023-03-01T14:11:02;10.50;87.90
17370;DHT22;8802;52.402;4.920;2023-03-01T14:13:42;10.50;87.90
17370;DHT22;8802;52.402;4.920;2023-03-01T14:16:25;10.50;88.40
17370;DHT22;8802;52.402;4.920;2023-03-01T14:19:03;10.40;87.10
17370;DHT22;8802;52.402;4.920;2023-03-01T14:21:35;10.40;86.90
17370;DHT22;8802;52.402;4.920;2023-03-01T14:24:03;10.40;87.10
17370;DHT22;8802;52.402;4.920;2023-03-01T14:26:31;10.30;86.90
17370;DHT22;8802;52.402;4.920;2023-03-01T14:29:01;10.30;86.90
17370;DHT22;8802;52.402;4.920;2023-03-01T14:31:46;10.30;86.70
17370;DHT22;8802;52.402;4.920;2023-03-01T14:34:18;10.20;86.60
17370;DHT22;8802;52.402;4.920;2023-03-01T14:36:47;10.20;87.30
17370;DHT22;8802;52.402;4.920;2023-03-01T14:39:18;10.20;87.60
17370;DHT22;8802;52.402;4.920;2023-03-01T14:41:45;10.20;87.10
17370;DHT22;8802;52.402;4.920;2023-03-01T14:44:15;10.10;86.80
17370;DHT22;8802;52.402;4.920;2023-03-01T14:46:44;10.10;86.60
17370;DHT22;8802;52.402;4.920;2023-03-01T14:49:15;10.10;86.10
17370;DHT22;8802;52.402;4.920;2023-03-01T14:51:49;10.10;85.90
17370;DHT22;8802;52.402;4.920;2023-03-01T14:54:24;10.10;86.10
17370;DHT22;8802;52.402;4.920;2023-03-01T14:56:53;10.00;85.70
17370;DHT22;8802;52.402;4.920;2023-03-01T14:59:22;10.00;86.60
17370;DHT22;8802;52.402;4.920;2023-03-01T15:01:50;10.00;86.20
17370;DHT22;8802;52.402;4.920;2023-03-01T15:04:18;10.00;86.00
17370;DHT22;8802;52.402;4.920;2023-03-01T15:06:49;10.00;86.10
17370;DHT22;8802;52.402;4.920;2023-03-01T15:09:17;10.00;85.10
17370;DHT22;8802;52.402;4.920;2023-03-01T15:11:45;10.00;84.50
17370;DHT22;8802;52.402;4.920;2023-03-01T15:14:40;10.00;84.30
17370;DHT22;8802;52.402;4.920;2023-03-01T15:17:21;10.00;84.70
17370;DHT22;8802;52.402;4.920;2023-03-01T15:19:49;10.00;84.20
17370;DHT22;8802;52.402;4.920;2023-03-01T15:22:26;9.90;84.10
17370;DHT22;8802;52.402;4.920;2023-03-01T15:24:53;9.90;83.80
17370;DHT22;8802;52.402;4.920;2023-03-01T15:27:22;9.90;84.20
17370;DHT22;8802;52.402;4.920;2023-03-01T15:29:51;10.00;84.40
17370;DHT22;8802;52.402;4.920;2023-03-01T15:32:26;9.90;84.60
17370;DHT22;8802;52.402;4.920;2023-03-01T15:34:53;9.90;84.10
17370;DHT22;8802;52.402;4.920;2023-03-01T15:37:44;9.90;83.60
17370;DHT22;8802;52.402;4.920;2023-03-01T15:40:22;9.90;83.80
17370;DHT22;8802;52.402;4.920;2023-03-01T15:42:56;9.90;84.10
17370;DHT22;8802;52.402;4.920;2023-03-01T15:45:25;10.00;84.60
17370;DHT22;8802;52.402;4.920;2023-03-01T15:47:55;9.90;83.60
17370;DHT22;8802;52.402;4.920;2023-03-01T15:50:26;9.90;83.80
17370;DHT22;8802;52.402;4.920;2023-03-01T15:52:56;9.90;84.00
17370;DHT22;8802;52.402;4.920;2023-03-01T15:55:26;9.90;84.20
17370;DHT22;8802;52.402;4.920;2023-03-01T15:57:59;9.90;84.10
17370;DHT22;8802;52.402;4.920;2023-03-01T16:00:27;9.90;83.80
17370;DHT22;8802;52.402;4.920;2023-03-01T16:02:55;9.90;83.90
17370;DHT22;8802;52.402;4.920;2023-03-01T16:05:25;9.90;84.40
17370;DHT22;8802;52.402;4.920;2023-03-01T16:07:53;9.90;84.40
17370;DHT22;8802;52.402;4.920;2023-03-01T16:10:21;9.90;84.40
17370;DHT22;8802;52.402;4.920;2023-03-01T16:12:49;9.90;84.30
17370;DHT22;8802;52.402;4.920;2023-03-01T16:15:19;10.00;84.70
17370;DHT22;8802;52.402;4.920;2023-03-01T16:17:46;9.90;84.80
17370;DHT22;8802;52.402;4.920;2023-03-01T16:20:13;9.90;84.60
17370;DHT22;8802;52.402;4.920;2023-03-01T16:22:41;9.90;85.10
17370;DHT22;8802;52.402;4.920;2023-03-01T16:25:10;9.90;85.40
17370;DHT22;8802;52.402;4.920;2023-03-01T16:27:41;9.90;85.70
17370;DHT22;8802;52.402;4.920;2023-03-01T16:30:10;9.90;86.60
17370;DHT22;8802;52.402;4.920;2023-03-01T16:32:38;9.90;85.90
17370;DHT22;8802;52.402;4.920;2023-03-01T16:35:05;9.90;86.60